Terminal Aerodrome Forecast
Issued by NWS

Home | Current Version | Previous Version | Text Only | Print | Product List | Glossary On
Versions: 1 2 3 4 5 6 7 8 9 10 11 12 13 14 15 16 17 18 19
000
FTUS43 KABR 271313 AAB
TAFATY
TAF AMD
KATY 271313Z 2713/2812 15008KT P6SM OVC015
      TEMPO 2713/2715 SCT006
     FM271600 19008KT P6SM BKN070
     FM280200 VRB04KT P6SM BKN200=

USA.gov is the U.S. government's official web portal to all federal, state and local government web resources and services.